Aérodrome :
LOGIN :

S'inscrire | Disclaimer

   EN    FR    IT 

 










Légende :    VFR   VFR Marginal   IFR   IFR Intensif   IFR Très Intensif
Visi : 
Plafond : 
>= 8 km
>= 3000ft
5 à 8 km
1000 à 3000 ft
1500m à 5 km
500 à 1000 ft
800 à 1500m
200 à 500 ft
< 800m
< 200 ft
Symboles :   Orages  Brouillard  Fortes neiges  Fortes précipitations  Vent > 20 kt
SIGMETs :   Divers  Orages  Givrage  Turbulence  Onde Orograph.  Cendres Volcan.







- Altitude de l'aérodrome : 776 ft
- Code IATA : RMS


ETAR - Ramstein Air Base

DERNIER METAR :
  • 180456Z AUTO 00000KT 9999 FEW065 14/13 A3000 RMK AO2 SLP154 T01400125 $

METARs EXPIRÉS :
  • 180448Z 00000KT 9999 FEW065 14/12 A3000 RMK SLP154 $
  • 180326Z COR AUTO 00000KT 9999 CLR 11/11 A2999 RMK AO2 SLP152 $ COR 0329
  • 180316Z AUTO 00000KT 3000 BR FEW070 11/11 A3000 RMK AO2 VIS 3000V9999 SLP156 $
  • 180256Z AUTO 00000KT 9999 FEW070 10/10 A3001 RMK AO2 SLP160 T01030100 56007

TAF TAF ETAR
Valide du 18 à 02h jusqu'au 19 à 08h UTC


180201Z 1802/1908 06006KT 9999 SCT040 QNH2998INS
BECMG 1818/1819 VRB06KT 9999 SCT060 BKN180 QNH2989INS
BECMG 1901/1902 21009KT 9999 FEW100 QNH2986INS TX27/1812Z TN11/1804Z
Pas de NOTAMs connus pour ce terrain.



MET'MAP, la Météo Aéronautique d'un coup d'oeil ! - Copyright ORBIFLY Décembre 2007 - Disclaimer

ORBIFLY MET'MAP TEAM :

Programmation & Développement : Alexandra Zaïnal
Conception & Développement : Baudouin d'Aumeries
Co-Programmation & Développement : Marc-Olivier Méhu
Soutien technique & logistique : Manuel Goepfert

Contact : metmap@orbifly.com




SOURCES & CREDITS :

   NOAA